Time;durP1;ratioP1;P1;durP2;ratioP2;P2;SDS_P1;SDS_P2;PMS_P1;PMS_P2;Temp;Humidity;BMP_temperature;BMP_pressure;BME280_temperature;BME280_humidity;BME280_pressure;Samples;Min_cycle;Max_cycle;Signal;HPM_P1;HPM_P2
2022/05/11 00:02:18;;;;;;;0.88;0.82;;;;;;;21.43;43.23;100821.03;5106837;28;20019;-78
2022/05/11 00:04:48;;;;;;;1.75;1.00;;;;;;;21.40;43.55;100827.44;5130069;28;20042;-77
2022/05/11 00:07:19;;;;;;;0.65;0.57;;;;;;;21.38;43.34;100824.84;5116882;28;20030;-77
2022/05/11 00:09:49;;;;;;;0.55;0.55;;;;;;;21.35;43.40;100813.53;5105018;28;20049;-77
2022/05/11 00:12:20;;;;;;;0.77;0.75;;;;;;;21.34;43.59;100812.72;5122270;28;20221;-77
2022/05/11 00:14:50;;;;;;;0.98;0.47;;;;;;;21.30;43.48;100805.88;5120669;28;20073;-77
2022/05/11 00:17:21;;;;;;;1.13;0.45;;;;;;;21.32;43.63;100811.13;5097597;29;20398;-78
2022/05/11 00:19:51;;;;;;;1.30;1.25;;;;;;;21.28;43.47;100812.28;5129733;28;20066;-78
2022/05/11 00:22:21;;;;;;;0.30;0.30;;;;;;;21.27;43.95;100811.44;5136251;28;20440;-77
2022/05/11 00:24:52;;;;;;;0.38;0.38;;;;;;;21.23;44.24;100802.81;5121155;28;20788;-77
2022/05/11 00:27:22;;;;;;;0.85;0.80;;;;;;;21.25;44.04;100810.69;5139880;28;20106;-77
2022/05/11 00:29:53;;;;;;;0.30;0.30;;;;;;;21.22;43.81;100797.56;5121783;28;20050;-77
2022/05/11 00:32:25;;;;;;;0.20;0.20;;;;;;;21.18;44.09;100801.41;5123177;28;20126;-78
2022/05/11 00:34:55;;;;;;;1.00;0.83;;;;;;;21.17;44.13;100799.69;5105872;28;20042;-77
2022/05/11 00:37:27;;;;;;;0.30;0.30;;;;;;;21.15;44.28;100801.63;5100585;28;20110;-77
2022/05/11 00:39:58;;;;;;;1.15;0.73;;;;;;;21.14;44.70;100797.25;5138510;28;20039;-77
2022/05/11 00:42:30;;;;;;;2.20;0.80;;;;;;;21.13;44.17;100803.53;5105837;28;20058;-77
2022/05/11 00:45:00;;;;;;;0.43;0.43;;;;;;;21.12;44.18;100792.03;5136172;28;20042;-77
2022/05/11 00:47:37;;;;;;;0.50;0.50;;;;;;;21.07;44.37;100784.34;5133453;28;20031;-77
2022/05/11 00:50:23;;;;;;;0.30;0.30;;;;;;;21.09;44.42;100775.38;5137605;28;20073;-77
2022/05/11 00:52:58;;;;;;;1.90;1.00;;;;;;;21.03;44.51;100782.84;5135199;28;20039;-78
2022/05/11 00:55:38;;;;;;;0.38;0.38;;;;;;;20.99;44.86;100780.53;5138832;28;20409;-77
2022/05/11 00:58:24;;;;;;;0.55;0.55;;;;;;;20.98;44.90;100785.00;5121224;28;20050;-77
2022/05/11 01:00:55;;;;;;;0.32;0.32;;;;;;;20.98;44.54;100782.31;5116344;28;20050;-77
2022/05/11 01:03:50;;;;;;;0.30;0.30;;;;;;;20.95;44.79;100784.34;5118738;28;20067;-77
2022/05/11 01:06:22;;;;;;;0.32;0.32;;;;;;;20.95;44.99;100763.00;5120529;28;20151;-77
2022/05/11 01:08:52;;;;;;;0.95;0.68;;;;;;;20.88;45.10;100770.59;5148688;28;20034;-77
2022/05/11 01:11:25;;;;;;;0.57;0.57;;;;;;;20.84;45.30;100761.94;5140780;28;20034;-78
2022/05/11 01:13:59;;;;;;;0.30;0.30;;;;;;;20.85;45.43;100758.31;5129005;28;20034;-78
2022/05/11 01:16:30;;;;;;;0.45;0.45;;;;;;;20.81;45.83;100758.66;5145617;28;20122;-77
2022/05/11 01:19:00;;;;;;;1.90;1.00;;;;;;;20.82;45.13;100747.03;5133413;28;20085;-77
2022/05/11 01:21:46;;;;;;;0.60;0.60;;;;;;;20.80;45.57;100755.13;5139039;28;20117;-77
2022/05/11 01:24:42;;;;;;;0.68;0.65;;;;;;;20.74;45.43;100735.09;5132165;28;20167;-77
2022/05/11 01:27:23;;;;;;;0.88;0.88;;;;;;;20.75;45.28;100742.13;5130119;28;20189;-77
2022/05/11 01:29:57;;;;;;;0.57;0.57;;;;;;;20.74;45.09;100743.09;5120815;28;20113;-77
2022/05/11 01:32:29;;;;;;;0.70;0.70;;;;;;;20.69;45.46;100736.31;5136516;28;20058;-77
2022/05/11 01:35:20;;;;;;;1.02;0.52;;;;;;;20.66;45.63;100739.22;5120701;28;20515;-78
2022/05/11 01:38:17;;;;;;;0.38;0.38;;;;;;;20.63;45.22;100737.59;5120453;28;20070;-77
2022/05/11 01:40:48;;;;;;;0.30;0.30;;;;;;;20.60;45.38;100736.00;5120807;28;20093;-77
2022/05/11 01:43:28;;;;;;;0.50;0.50;;;;;;;20.57;45.59;100732.69;5137969;28;20062;-77
2022/05/11 01:45:59;;;;;;;0.70;0.70;;;;;;;20.54;45.47;100717.78;5152033;28;20410;-77
2022/05/11 01:48:30;;;;;;;10.85;2.30;;;;;;;20.52;45.18;100718.84;5135591;28;20027;-77
2022/05/11 01:51:01;;;;;;;0.30;0.30;;;;;;;20.47;45.64;100720.97;5135272;28;20037;-77
2022/05/11 01:53:31;;;;;;;0.40;0.40;;;;;;;20.44;45.62;100711.38;5132490;28;20117;-77
2022/05/11 01:56:06;;;;;;;1.13;0.98;;;;;;;20.40;45.58;100713.41;5152942;28;20098;-77
2022/05/11 01:58:39;;;;;;;0.30;0.30;;;;;;;20.38;45.72;100704.66;5113129;28;20081;-77
2022/05/11 02:01:09;;;;;;;0.68;0.68;;;;;;;20.36;45.68;100706.59;5104350;28;20031;-77
2022/05/11 02:03:40;;;;;;;0.30;0.30;;;;;;;20.34;46.12;100700.50;5120711;28;20046;-77
2022/05/11 02:09:00;;;;;;;0.40;0.40;;;;;;;20.28;45.79;100696.44;5115121;28;20062;-77
2022/05/11 02:11:31;;;;;;;0.45;0.45;;;;;;;20.21;46.07;100691.63;5138566;28;20035;-77
2022/05/11 02:14:04;;;;;;;0.50;0.50;;;;;;;20.20;46.14;100695.28;5138097;28;20771;-77
2022/05/11 02:16:34;;;;;;;;;;;;;;;20.15;46.00;100686.72;5120091;28;20024;-77
2022/05/11 02:19:11;;;;;;;0.82;0.82;;;;;;;20.16;45.89;100689.31;5134636;28;20411;-77
2022/05/11 02:21:42;;;;;;;0.50;0.47;;;;;;;20.13;45.75;100685.00;5117998;28;20027;-77
2022/05/11 02:24:12;;;;;;;2.10;0.90;;;;;;;20.08;46.08;100684.50;5135665;28;20413;-77
2022/05/11 02:26:43;;;;;;;0.50;0.50;;;;;;;20.05;46.14;100675.84;5118986;28;20221;-78
2022/05/11 02:29:13;;;;;;;0.30;0.30;;;;;;;20.03;45.84;100675.09;5119920;28;20062;-77
2022/05/11 02:31:44;;;;;;;0.30;0.30;;;;;;;19.98;46.46;100675.41;5121715;28;20027;-78
2022/05/11 02:35:12;;;;;;;0.60;0.60;;;;;;;19.96;46.28;100669.31;5138458;28;20062;-78
2022/05/11 02:37:05;;;;;;;0.60;0.60;;;;;;;19.87;46.50;100669.97;5130246;28;20348;-78
2022/05/11 02:39:36;;;;;;;0.30;0.30;;;;;;;19.86;46.06;100670.94;5134228;28;20070;-78
2022/05/11 02:42:07;;;;;;;1.38;1.17;;;;;;;19.85;46.08;100666.56;5126250;28;20054;-78
2022/05/11 02:44:37;;;;;;;0.68;0.68;;;;;;;19.83;46.13;100661.31;5128095;28;20042;-78
2022/05/11 02:47:08;;;;;;;0.20;0.20;;;;;;;19.78;46.25;100669.59;5108417;28;20039;-78
2022/05/11 02:49:38;;;;;;;0.45;0.40;;;;;;;19.79;46.06;100663.28;5151210;28;20039;-79
2022/05/11 02:52:09;;;;;;;0.32;0.32;;;;;;;19.77;45.88;100659.91;5138047;28;20056;-78
2022/05/11 02:54:41;;;;;;;0.55;0.55;;;;;;;19.72;46.37;100659.34;5125258;28;20031;-78
2022/05/11 02:57:13;;;;;;;0.60;0.60;;;;;;;19.69;46.42;100667.53;5139316;28;20159;-76
2022/05/11 02:59:44;;;;;;;0.52;0.52;;;;;;;19.70;46.61;100665.72;5149630;28;20521;-76
2022/05/11 03:02:19;;;;;;;0.50;0.50;;;;;;;19.65;46.23;100666.03;5140295;28;20034;-77
2022/05/11 03:04:50;;;;;;;0.30;0.30;;;;;;;19.64;46.02;100661.66;5138485;28;20045;-77
2022/05/11 03:07:21;;;;;;;1.30;1.20;;;;;;;19.60;46.38;100657.50;5124617;28;20031;-77
2022/05/11 03:09:54;;;;;;;0.63;0.63;;;;;;;19.59;46.03;100661.13;5146404;28;20072;-76
2022/05/11 03:12:25;;;;;;;5.75;1.05;;;;;;;19.57;46.42;100655.03;5126428;28;20126;-77
2022/05/11 03:14:57;;;;;;;0.73;0.73;;;;;;;19.49;47.15;100660.88;5122331;28;20110;-77
2022/05/11 03:17:28;;;;;;;3.63;0.43;;;;;;;19.50;46.45;100646.63;5120665;28;20256;-78
2022/05/11 03:19:58;;;;;;;1.15;0.77;;;;;;;19.47;46.93;100647.66;5141149;28;20170;-78
2022/05/11 03:22:29;;;;;;;0.60;0.60;;;;;;;19.49;47.10;100652.91;5141350;28;20086;-77
2022/05/11 03:24:59;;;;;;;0.70;0.70;;;;;;;19.46;46.39;100648.59;5140097;28;20049;-78
2022/05/11 03:27:31;;;;;;;0.82;0.82;;;;;;;19.44;46.44;100647.88;5139197;28;20634;-78
2022/05/11 03:30:02;;;;;;;0.68;0.68;;;;;;;19.41;46.64;100642.75;5126065;28;20098;-78
2022/05/11 03:35:22;;;;;;;9.13;1.67;;;;;;;19.37;46.51;100641.25;5128521;28;20039;-79
2022/05/11 03:37:56;;;;;;;1.33;1.23;;;;;;;19.33;46.72;100639.75;5123737;28;20050;-79
2022/05/11 03:40:27;;;;;;;1.52;1.30;;;;;;;19.29;46.69;100638.25;5123380;28;20083;-79
2022/05/11 03:42:57;;;;;;;1.60;0.70;;;;;;;19.26;46.99;100631.28;5120071;28;20174;-79
2022/05/11 03:45:28;;;;;;;1.40;1.30;;;;;;;19.26;46.53;100622.47;5104248;28;20058;-79
2022/05/11 03:47:58;;;;;;;0.55;0.55;;;;;;;19.19;47.44;100630.84;5121629;28;20030;-78
2022/05/11 03:50:29;;;;;;;1.15;0.95;;;;;;;19.22;46.73;100626.28;5112628;28;20050;-77
2022/05/11 03:52:59;;;;;;;1.05;0.60;;;;;;;19.17;46.90;100630.09;5118545;28;20429;-79
2022/05/11 03:55:39;;;;;;;0.22;0.22;;;;;;;19.15;46.95;100625.84;5100344;28;20043;-77
2022/05/11 03:58:12;;;;;;;0.63;0.63;;;;;;;19.13;47.06;100625.91;5085142;29;20028;-77
2022/05/11 04:00:42;;;;;;;;;;;;;;;19.09;47.43;100619.09;5138053;28;20101;-77
2022/05/11 04:03:16;;;;;;;0.47;0.47;;;;;;;19.10;46.85;100628.78;5106523;28;19925;-77
2022/05/11 04:05:49;;;;;;;5.03;0.85;;;;;;;19.12;46.78;100623.38;5137516;28;20038;-77
2022/05/11 04:08:20;;;;;;;0.90;0.90;;;;;;;19.06;47.48;100616.63;5120202;28;20054;-77
2022/05/11 04:10:53;;;;;;;1.30;1.20;;;;;;;19.08;47.02;100619.22;5152626;28;20061;-77
2022/05/11 04:13:23;;;;;;;0.70;0.70;;;;;;;19.07;46.96;100621.00;5137527;28;20066;-78
2022/05/11 04:15:54;;;;;;;0.60;0.60;;;;;;;19.05;47.26;100620.25;5136244;28;20182;-78
2022/05/11 04:18:25;;;;;;;13.10;2.47;;;;;;;19.01;47.26;100618.75;5119480;28;20027;-78
2022/05/11 04:20:55;;;;;;;0.73;0.73;;;;;;;19.03;47.20;100622.16;5135960;28;20034;-79
2022/05/11 04:23:26;;;;;;;0.35;0.35;;;;;;;18.99;47.32;100621.50;5119910;28;20098;-78
2022/05/11 04:25:56;;;;;;;1.75;0.60;;;;;;;18.97;47.39;100625.19;5136068;28;20070;-78
2022/05/11 04:28:27;;;;;;;2.20;0.35;;;;;;;18.94;47.35;100617.44;5130215;28;20033;-78
2022/05/11 04:31:06;;;;;;;0.60;0.60;;;;;;;18.88;48.02;100613.31;5136628;28;20031;-79
2022/05/11 04:33:37;;;;;;;1.60;1.08;;;;;;;18.98;48.19;100613.63;5120682;28;20039;-79
2022/05/11 04:36:10;;;;;;;1.70;1.60;;;;;;;18.96;47.79;100610.22;5104605;28;20708;-79
2022/05/11 04:38:41;;;;;;;0.63;0.60;;;;;;;18.97;48.71;100611.91;5120106;28;20062;-79
2022/05/11 04:41:11;;;;;;;3.30;1.38;;;;;;;18.90;47.92;100610.56;5137680;28;20027;-78
2022/05/11 04:43:41;;;;;;;2.30;1.30;;;;;;;18.90;47.88;100613.22;5118235;28;20046;-79
2022/05/11 04:46:12;;;;;;;1.02;0.98;;;;;;;18.96;48.51;100620.84;5119380;28;20031;-79
2022/05/11 04:48:44;;;;;;;0.95;0.90;;;;;;;18.90;48.24;100610.56;5129903;28;20074;-78
2022/05/11 04:51:14;;;;;;;0.60;0.45;;;;;;;18.86;48.16;100610.78;5137113;28;20075;-80
2022/05/11 04:53:45;;;;;;;0.88;0.55;;;;;;;18.78;48.40;100607.75;5132105;28;20150;-77
2022/05/11 04:56:15;;;;;;;0.95;0.85;;;;;;;18.76;48.20;100601.66;5118809;28;20743;-78
2022/05/11 04:58:45;;;;;;;0.63;0.60;;;;;;;18.81;48.91;100596.91;5115939;28;20173;-78
2022/05/11 05:01:22;;;;;;;1.45;1.05;;;;;;;18.77;48.66;100595.41;5134580;28;20067;-78
2022/05/11 05:03:55;;;;;;;0.80;0.80;;;;;;;18.84;48.54;100604.69;5133657;28;20038;-78
2022/05/11 05:06:25;;;;;;;1.35;0.98;;;;;;;18.80;48.33;100605.81;5114521;28;20028;-78
2022/05/11 05:08:55;;;;;;;8.40;2.15;;;;;;;18.84;48.67;100606.50;5135090;28;20046;-77
2022/05/11 05:11:26;;;;;;;0.60;0.60;;;;;;;18.79;48.48;100604.16;5134313;28;20035;-78
2022/05/11 05:13:57;;;;;;;2.45;1.88;;;;;;;18.77;48.52;100603.38;5135180;28;20062;-78
2022/05/11 05:16:27;;;;;;;1.15;0.90;;;;;;;18.79;51.52;100609.47;5133112;28;20070;-78
2022/05/11 05:19:01;;;;;;;1.15;1.05;;;;;;;18.83;49.60;100605.63;5120630;28;20524;-78
2022/05/11 05:21:32;;;;;;;1.52;1.40;;;;;;;18.81;49.12;100612.84;5134188;28;20031;-78
2022/05/11 05:24:03;;;;;;;1.85;1.42;;;;;;;18.79;49.12;100606.81;5138158;28;20097;-79
2022/05/11 05:26:37;;;;;;;1.08;0.98;;;;;;;18.90;49.83;100610.56;5118507;28;20026;-77
2022/05/11 05:31:56;;;;;;;0.75;0.73;;;;;;;18.71;49.94;100611.75;5118353;28;20401;-78
2022/05/11 05:34:29;;;;;;;0.93;0.93;;;;;;;18.72;50.40;100613.44;5123521;28;20039;-78
2022/05/11 05:36:59;;;;;;;1.35;1.27;;;;;;;18.74;50.72;100611.53;5118277;28;20034;-78
2022/05/11 05:39:29;;;;;;;1.00;0.95;;;;;;;18.74;50.44;100616.84;5124745;28;20574;-78
2022/05/11 05:42:00;;;;;;;0.70;0.70;;;;;;;18.74;50.53;100608.03;5115425;29;20028;-79
2022/05/11 05:44:32;;;;;;;1.95;1.13;;;;;;;18.74;49.95;100608.88;5124276;28;20138;-78
2022/05/11 05:47:07;;;;;;;0.40;0.40;;;;;;;18.74;49.79;100610.69;5131106;28;20054;-78
2022/05/11 05:49:38;;;;;;;2.72;1.20;;;;;;;18.74;50.27;100606.22;5117857;28;20042;-78
2022/05/11 05:52:24;;;;;;;1.55;1.45;;;;;;;18.80;51.11;100605.81;5118817;28;20038;-79
2022/05/11 05:54:56;;;;;;;1.23;1.13;;;;;;;18.83;51.34;100605.63;5118225;28;20042;-77
2022/05/11 05:57:27;;;;;;;1.13;1.00;;;;;;;18.75;52.21;100607.94;5134502;28;20114;-77
2022/05/11 05:59:57;;;;;;;0.65;0.65;;;;;;;18.77;50.91;100602.50;5136592;28;20820;-77
2022/05/11 06:02:28;;;;;;;5.60;2.15;;;;;;;18.79;51.32;100606.81;5119002;28;20035;-78
2022/05/11 06:04:58;;;;;;;2.15;1.63;;;;;;;18.82;51.22;100609.25;5133600;28;20096;-78
2022/05/11 06:07:29;;;;;;;2.45;1.67;;;;;;;18.77;52.68;100608.69;5131162;28;20055;-78
2022/05/11 06:09:59;;;;;;;0.88;0.88;;;;;;;18.66;53.72;100613.81;5102017;28;20050;-78
2022/05/11 06:12:30;;;;;;;1.05;1.00;;;;;;;18.70;53.50;100612.69;5134461;28;20027;-78
2022/05/11 06:15:01;;;;;;;0.77;0.77;;;;;;;18.69;53.18;100613.66;5133796;28;20130;-78
2022/05/11 06:17:33;;;;;;;0.63;0.63;;;;;;;18.64;52.80;100613.06;5121489;28;20440;-78
2022/05/11 06:20:04;;;;;;;0.60;0.60;;;;;;;18.60;54.01;100617.72;5106019;28;20050;-79
2022/05/11 06:22:34;;;;;;;0.20;0.20;;;;;;;18.58;53.14;100606.34;5121650;28;20022;-79
2022/05/11 06:25:09;;;;;;;1.77;1.23;;;;;;;18.68;52.93;100611.94;5105687;28;20824;-79
2022/05/11 06:27:39;;;;;;;1.38;0.95;;;;;;;18.76;51.72;100612.31;5136049;28;20035;-79
2022/05/11 06:30:10;;;;;;;4.63;2.75;;;;;;;18.75;52.55;100613.25;5137876;28;20104;-79
2022/05/11 06:32:41;;;;;;;1.23;1.20;;;;;;;18.72;52.10;100619.63;5139944;28;20031;-78
2022/05/11 06:35:12;;;;;;;1.35;0.65;;;;;;;18.78;52.29;100618.38;5106642;28;20430;-78
2022/05/11 06:37:46;;;;;;;0.77;0.77;;;;;;;18.84;51.32;100622.47;5112866;28;20030;-79
2022/05/11 06:40:17;;;;;;;2.80;1.17;;;;;;;18.95;51.84;100613.84;5142630;28;20038;-78
2022/05/11 06:42:52;;;;;;;1.05;0.95;;;;;;;18.90;51.06;100615.88;5130616;28;20449;-80
2022/05/11 06:45:26;;;;;;;1.05;0.82;;;;;;;18.91;50.86;100614.94;5145549;28;20042;-79
2022/05/11 06:47:57;;;;;;;1.05;1.05;;;;;;;18.94;50.94;100612.13;5135666;28;20117;-78
2022/05/11 06:50:28;;;;;;;0.60;0.60;;;;;;;18.95;51.33;100619.97;5124250;28;20046;-78
2022/05/11 06:53:11;;;;;;;0.73;0.73;;;;;;;18.98;50.79;100629.56;5134945;28;20046;-78
2022/05/11 07:01:24;;;;;;;0.35;0.35;;;;;;;18.99;50.76;100632.16;5142804;28;20047;-78
2022/05/11 07:03:54;;;;;;;0.65;0.65;;;;;;;19.11;50.46;100629.63;5121970;28;20081;-78
2022/05/11 07:06:24;;;;;;;0.40;0.40;;;;;;;19.03;50.73;100630.97;5122418;28;20037;-78
2022/05/11 07:08:56;;;;;;;1.25;0.70;;;;;;;18.98;51.47;100632.22;5116990;28;20529;-77
2022/05/11 07:14:26;;;;;;;0.30;0.30;;;;;;;18.99;51.43;100620.63;5138558;28;20048;-77
2022/05/11 07:17:01;;;;;;;0.68;0.68;;;;;;;18.99;50.66;100621.50;5103882;28;20139;-78
2022/05/11 07:19:33;;;;;;;0.52;0.52;;;;;;;18.99;50.72;100615.31;5137342;28;20081;-78
2022/05/11 07:22:03;;;;;;;0.20;0.20;;;;;;;19.02;50.23;100621.28;5139224;28;20033;-78
2022/05/11 07:24:34;;;;;;;0.40;0.40;;;;;;;19.18;49.72;100613.19;5110057;28;20413;-78
2022/05/11 07:27:05;;;;;;;0.52;0.52;;;;;;;19.24;49.21;100613.72;5130952;28;20031;-78
2022/05/11 07:29:39;;;;;;;0.40;0.40;;;;;;;19.25;49.06;100613.66;5149256;28;20046;-79
2022/05/11 07:32:10;;;;;;;0.20;0.20;;;;;;;19.11;49.33;100609.22;5129437;28;20031;-78
2022/05/11 07:34:41;;;;;;;0.98;0.90;;;;;;;19.16;49.57;100609.78;5114110;28;20038;-78
2022/05/11 07:37:11;;;;;;;1.17;0.50;;;;;;;19.24;49.57;100608.41;5137469;28;20393;-77
2022/05/11 07:39:42;;;;;;;0.40;0.40;;;;;;;19.21;49.91;100609.47;5116352;28;20073;-78
2022/05/11 07:42:13;;;;;;;0.63;0.63;;;;;;;19.27;49.74;100608.22;5138615;28;20025;-79
2022/05/11 07:44:43;;;;;;;1.48;0.35;;;;;;;19.31;49.93;100604.38;5135074;28;20046;-78
2022/05/11 07:47:14;;;;;;;0.25;0.25;;;;;;;19.43;49.69;100602.72;5132063;28;20106;-78
2022/05/11 07:49:44;;;;;;;0.38;0.38;;;;;;;19.38;50.07;100599.53;5117937;28;20458;-78
2022/05/11 07:52:15;;;;;;;0.60;0.60;;;;;;;19.44;50.44;100609.75;5136380;28;20125;-79
2022/05/11 07:54:48;;;;;;;2.63;0.90;;;;;;;19.47;50.67;100605.09;5136813;28;20065;-78
2022/05/11 08:00:09;;;;;;;0.40;0.40;;;;;;;19.50;50.36;100604.88;5136778;28;20677;-78
2022/05/11 08:02:40;;;;;;;0.30;0.30;;;;;;;19.55;49.78;100601.06;5121767;28;20366;-76
2022/05/11 08:05:13;;;;;;;0.40;0.40;;;;;;;19.49;49.85;100603.19;5119630;28;20168;-78
2022/05/11 08:07:49;;;;;;;0.30;0.30;;;;;;;19.50;49.63;100599.56;5118998;28;20137;-78
2022/05/11 08:10:24;;;;;;;0.57;0.57;;;;;;;19.56;49.51;100602.75;5119703;28;20790;-78
2022/05/11 08:12:54;;;;;;;0.32;0.32;;;;;;;19.67;49.44;100600.25;5139128;28;20580;-79
2022/05/11 08:15:30;;;;;;;0.28;0.28;;;;;;;19.60;49.74;100596.28;5133394;28;20042;-78
2022/05/11 08:18:04;;;;;;;0.20;0.20;;;;;;;19.69;49.49;100614.31;5130591;28;20023;-79
2022/05/11 08:20:38;;;;;;;0.20;0.20;;;;;;;19.68;48.49;100599.28;5112274;28;20074;-79
2022/05/11 08:23:12;;;;;;;4.60;1.33;;;;;;;19.67;48.89;100598.44;5127357;28;20031;-82
2022/05/11 08:25:46;;;;;;;0.63;0.35;;;;;;;19.64;48.63;100606.63;5138264;28;20126;-79
2022/05/11 08:28:23;;;;;;;0.93;0.70;;;;;;;19.68;48.60;100601.97;5105941;28;20027;-81
2022/05/11 08:33:42;;;;;;;0.38;0.38;;;;;;;19.74;48.91;100601.53;5149593;28;20038;-80
2022/05/11 08:36:17;;;;;;;0.57;0.57;;;;;;;19.72;48.67;100594.63;5129918;28;20497;-80
2022/05/11 08:38:55;;;;;;;0.50;0.50;;;;;;;19.74;48.90;100596.22;5145827;28;20042;-80
2022/05/11 08:41:28;;;;;;;0.52;0.43;;;;;;;19.77;49.20;100589.81;5113497;28;20037;-80
2022/05/11 08:44:11;;;;;;;0.43;0.43;;;;;;;19.79;49.44;100599.41;5131288;28;20112;-80
2022/05/11 08:46:51;;;;;;;0.20;0.20;;;;;;;19.85;49.08;100603.50;5130112;28;20030;-79
2022/05/11 08:49:45;;;;;;;0.30;0.30;;;;;;;19.90;48.97;100600.53;5112938;28;20051;-79
2022/05/11 08:52:27;;;;;;;0.50;0.50;;;;;;;19.90;48.91;100592.53;5115442;28;20805;-79
2022/05/11 08:55:14;;;;;;;1.10;0.77;;;;;;;19.93;49.14;100595.00;5116872;28;20039;-80
2022/05/11 08:57:47;;;;;;;0.30;0.30;;;;;;;19.91;49.01;100597.78;5136277;28;20043;-79
2022/05/11 09:00:21;;;;;;;0.43;0.43;;;;;;;19.90;48.85;100600.53;5105925;28;20035;-80
2022/05/11 09:03:01;;;;;;;0.73;0.73;;;;;;;19.94;49.41;100597.53;5118809;29;20031;-79
2022/05/11 09:05:31;;;;;;;0.95;0.77;;;;;;;20.05;49.08;100594.13;5135409;28;20100;-79
2022/05/11 09:08:06;;;;;;;0.93;0.93;;;;;;;20.05;48.84;100591.47;5104503;28;20064;-79
2022/05/11 09:10:38;;;;;;;0.80;0.80;;;;;;;20.19;48.50;100592.34;5136759;28;20088;-78
2022/05/11 09:13:11;;;;;;;0.30;0.30;;;;;;;20.15;48.54;100588.16;5119361;28;20050;-79
2022/05/11 09:15:51;;;;;;;6.55;1.52;;;;;;;20.13;48.68;100589.13;5127828;28;20551;-79
2022/05/11 09:18:34;;;;;;;0.43;0.43;;;;;;;20.19;49.32;100585.19;5110914;28;20570;-79
2022/05/11 09:21:25;;;;;;;0.70;0.70;;;;;;;20.17;48.44;100580.94;5112606;28;20531;-80
2022/05/11 09:24:08;;;;;;;0.40;0.40;;;;;;;20.24;48.69;100580.41;5130625;28;20042;-79
2022/05/11 09:26:44;;;;;;;0.45;0.45;;;;;;;20.28;48.03;100571.22;5114979;29;20110;-79
2022/05/11 09:29:22;;;;;;;0.40;0.40;;;;;;;20.32;48.94;100569.19;5125948;28;20045;-79
2022/05/11 09:31:53;;;;;;;0.73;0.73;;;;;;;20.29;48.44;100572.94;5120701;28;20023;-79
2022/05/11 09:34:36;;;;;;;7.47;2.15;;;;;;;20.33;48.87;100562.91;5108387;28;20113;-79
2022/05/11 09:37:26;;;;;;;0.50;0.50;;;;;;;20.34;49.30;100559.28;5147177;28;20038;-80
2022/05/11 09:40:23;;;;;;;0.93;0.93;;;;;;;20.44;49.33;100565.69;5118412;28;20043;-78
2022/05/11 09:43:05;;;;;;;0.68;0.68;;;;;;;20.48;48.98;100565.44;5118067;28;20093;-79
2022/05/11 09:45:43;;;;;;;1.75;0.95;;;;;;;20.55;48.29;100566.69;5129311;28;20110;-79
2022/05/11 09:48:19;;;;;;;0.38;0.38;;;;;;;20.54;48.29;100563.19;5128995;28;20050;-79
2022/05/11 09:50:56;;;;;;;3.03;2.10;;;;;;;20.56;48.76;100560.41;5112861;28;20141;-79
2022/05/11 09:53:38;;;;;;;0.95;0.95;;;;;;;20.61;48.77;100560.94;5106328;28;20107;-79
2022/05/11 09:56:31;;;;;;;0.73;0.73;;;;;;;20.66;48.33;100558.78;5118215;28;20022;-79
2022/05/11 09:59:25;;;;;;;0.98;0.80;;;;;;;20.69;47.80;100550.59;5141937;28;20552;-79
2022/05/11 10:02:23;;;;;;;1.08;1.02;;;;;;;20.70;47.81;100557.59;5118457;28;20030;-79
2022/05/11 10:05:11;;;;;;;0.57;0.57;;;;;;;20.77;47.48;100554.53;5117429;28;20113;-79
2022/05/11 10:07:50;;;;;;;7.20;1.23;;;;;;;20.84;47.61;100550.47;5102832;28;20089;-79
2022/05/11 10:10:33;;;;;;;0.40;0.40;;;;;;;20.85;47.93;100549.50;5116413;28;20047;-79
2022/05/11 10:13:06;;;;;;;;;;;;;;;20.92;48.30;100545.41;5135576;28;20042;-79
2022/05/11 10:21:53;;;;;;;1.88;0.82;;;;;;;21.15;47.98;100532.19;5111694;28;20110;-79
2022/05/11 10:24:55;;;;;;;1.45;0.40;;;;;;;21.17;47.85;100536.44;5127008;28;20552;-79
2022/05/11 10:27:43;;;;;;;0.30;0.30;;;;;;;21.22;47.62;100528.06;5079214;29;20023;-79
2022/05/11 10:30:19;;;;;;;0.68;0.68;;;;;;;21.27;47.41;100533.94;5100127;28;20434;-78
2022/05/11 10:32:55;;;;;;;0.30;0.30;;;;;;;21.35;46.82;100525.34;5135657;28;20054;-79
2022/05/11 10:35:26;;;;;;;0.20;0.20;;;;;;;21.44;46.86;100532.66;5133337;28;20134;-79
2022/05/11 10:38:33;;;;;;;2.20;1.45;;;;;;;21.47;46.87;100512.88;5118017;28;20080;-78
2022/05/11 10:41:35;;;;;;;0.30;0.30;;;;;;;21.46;46.43;100519.19;5099160;29;20047;-79
2022/05/11 10:44:09;;;;;;;0.25;0.25;;;;;;;21.55;46.56;100515.81;5115787;28;20046;-80
2022/05/11 10:46:58;;;;;;;1.95;0.57;;;;;;;21.49;46.68;100508.28;5103387;28;20510;-79
2022/05/11 10:49:29;;;;;;;1.55;1.00;;;;;;;21.52;46.56;100511.56;5108792;28;20043;-80
2022/05/11 10:52:33;;;;;;;0.32;0.32;;;;;;;21.65;46.76;100506.16;5113395;28;20034;-79
2022/05/11 10:55:15;;;;;;;;;;;;;;;21.72;46.43;100500.34;5115116;28;20102;-80
2022/05/11 10:58:10;;;;;;;0.98;0.88;;;;;;;21.86;46.16;100494.75;5135805;28;19910;-79
2022/05/11 11:00:47;;;;;;;0.32;0.32;;;;;;;21.89;45.98;100491.84;5116300;28;20680;-80
2022/05/11 11:03:49;;;;;;;2.17;1.33;;;;;;;21.97;46.95;100486.75;5121672;28;20513;-80
2022/05/11 11:07:14;;;;;;;0.30;0.30;;;;;;;22.09;46.58;100484.09;5107395;28;20043;-79
2022/05/11 11:10:16;;;;;;;0.93;0.60;;;;;;;22.18;45.92;100483.38;5132917;28;20043;-80
2022/05/11 11:13:23;;;;;;;0.68;0.65;;;;;;;22.25;45.86;100473.03;5126217;28;20039;-79
2022/05/11 11:15:55;;;;;;;0.55;0.55;;;;;;;22.35;45.47;100471.31;5155283;28;20121;-79
2022/05/11 11:18:32;;;;;;;14.80;1.63;;;;;;;22.45;45.50;100460.75;5139035;28;20042;-80
2022/05/11 11:21:06;;;;;;;0.30;0.30;;;;;;;22.49;44.69;100462.22;5124308;28;20084;-79
2022/05/11 11:23:42;;;;;;;0.98;0.95;;;;;;;22.51;44.97;100460.25;5127571;28;20071;-79
2022/05/11 11:26:45;;;;;;;0.68;0.68;;;;;;;22.66;45.22;100450.13;5127115;28;20572;-80
2022/05/11 11:29:32;;;;;;;0.55;0.55;;;;;;;22.81;43.95;100452.50;5102065;28;20210;-79
2022/05/11 11:32:02;;;;;;;0.65;0.65;;;;;;;22.85;44.27;100443.25;5146314;28;20035;-80
2022/05/11 11:34:39;;;;;;;0.90;0.90;;;;;;;;;;5146311;28;20213;-79
2022/05/11 11:37:24;;;;;;;1.55;0.95;;;;;;;22.93;44.25;100444.28;5124576;28;20077;-79
2022/05/11 11:40:17;;;;;;;0.60;0.60;;;;;;;23.09;43.78;100449.22;5122617;28;20097;-77
2022/05/11 11:42:48;;;;;;;1.05;0.95;;;;;;;23.16;43.81;100433.50;5110723;28;20035;-78
2022/05/11 11:45:25;;;;;;;0.30;0.30;;;;;;;23.35;42.97;100437.28;5136563;28;20122;-79
2022/05/11 11:48:00;;;;;;;0.52;0.52;;;;;;;23.46;43.04;100437.22;5154449;28;20047;-80
2022/05/11 11:50:53;;;;;;;23.10;2.05;;;;;;;23.47;43.38;100432.72;5123118;28;20038;-81
2022/05/11 11:53:38;;;;;;;1.40;1.30;;;;;;;23.57;42.37;100425.56;5104748;28;20489;-80
2022/05/11 11:56:33;;;;;;;16.23;1.55;;;;;;;23.66;42.10;100424.78;5104783;28;20061;-79
2022/05/11 11:59:25;;;;;;;0.47;0.47;;;;;;;23.78;42.03;100420.16;5116499;28;20097;-78
2022/05/11 12:02:04;;;;;;;0.68;0.68;;;;;;;23.80;42.84;100420.88;5121080;28;20029;-78
2022/05/11 12:04:40;;;;;;;0.32;0.32;;;;;;;23.95;42.57;100412.50;5107681;28;20070;-79
2022/05/11 12:16:03;;;;;;;0.47;0.47;;;;;;;24.20;41.76;100400.44;5138563;28;20046;-78
2022/05/11 12:18:36;;;;;;;0.43;0.43;;;;;;;24.36;42.22;100399.91;5152360;28;20118;-78
2022/05/11 12:21:22;;;;;;;1.45;1.00;;;;;;;24.40;41.81;100398.66;5121018;28;20038;-78
2022/05/11 12:23:52;;;;;;;7.47;0.80;;;;;;;24.51;41.08;100401.19;5103531;28;20040;-79
2022/05/11 12:26:29;;;;;;;0.50;0.50;;;;;;;24.69;40.73;100402.34;5121824;28;20057;-79
2022/05/11 12:32:08;;;;;;;1.13;1.05;;;;;;;24.94;41.03;100392.88;5120585;28;20045;-78
2022/05/11 12:34:46;;;;;;;7.75;1.52;;;;;;;24.98;40.57;100394.28;5123115;28;20053;-78
2022/05/11 12:37:27;;;;;;;1.13;1.10;;;;;;;25.05;40.59;100392.72;5143083;28;20039;-79
2022/05/11 12:40:14;;;;;;;0.30;0.30;;;;;;;25.05;41.06;100387.34;5105419;28;20509;-78
2022/05/11 12:42:47;;;;;;;0.95;0.60;;;;;;;25.19;40.86;100393.25;5134428;28;20029;-78
2022/05/11 12:45:20;;;;;;;0.55;0.55;;;;;;;25.29;40.63;100383.34;5132593;28;20078;-80
2022/05/11 12:47:54;;;;;;;0.40;0.40;;;;;;;25.35;40.49;100382.75;5107360;28;20023;-78